Time;durP1;ratioP1;P1;durP2;ratioP2;P2;SDS_P1;SDS_P2;PMS_P1;PMS_P2;Temp;Humidity;BMP_temperature;BMP_pressure;BME280_temperature;BME280_humidity;BME280_pressure;Samples;Min_cycle;Max_cycle;Signal;HPM_P1;HPM_P2
2021/01/04 00:01:03;;;;;;;19.87;11.77;;;3.50;96.30;;;;;;5047540;28;20427;-81
2021/01/04 00:03:40;;;;;;;25.93;16.10;;;3.50;96.40;;;;;;5045418;28;20435;-81
2021/01/04 00:06:51;;;;;;;23.03;15.00;;;3.50;96.40;;;;;;5048917;28;20033;-82
2021/01/04 00:09:32;;;;;;;27.90;16.63;;;3.50;96.40;;;;;;5026763;28;20395;-81
2021/01/04 00:12:04;;;;;;;26.33;15.40;;;3.50;96.40;;;;;;5045779;28;20055;-81
2021/01/04 00:14:42;;;;;;;25.77;16.07;;;3.50;96.40;;;;;;5048056;28;20052;-81
2021/01/04 00:17:44;;;;;;;29.03;18.20;;;3.50;96.50;;;;;;5048219;28;20558;-81
2021/01/04 00:20:24;;;;;;;25.10;16.03;;;3.50;96.50;;;;;;5044383;28;20056;-80
2021/01/04 00:23:24;;;;;;;27.43;17.03;;;3.50;96.50;;;;;;5048526;28;20049;-81
2021/01/04 00:26:15;;;;;;;24.27;15.07;;;3.50;96.50;;;;;;5046462;28;20522;-82
2021/01/04 00:28:43;;;;;;;23.87;15.63;;;3.50;96.50;;;;;;5029031;28;20136;-82
2021/01/04 00:31:18;;;;;;;22.85;14.63;;;3.50;96.50;;;;;;5029104;28;21137;-81
2021/01/04 00:33:50;;;;;;;22.53;13.80;;;3.50;96.50;;;;;;5048770;28;20047;-82
2021/01/04 00:36:30;;;;;;;22.95;13.90;;;3.50;96.50;;;;;;5047524;28;20507;-82
2021/01/04 00:39:21;;;;;;;22.93;14.17;;;3.50;96.50;;;;;;5044900;28;20399;-82
2021/01/04 00:42:18;;;;;;;22.93;15.43;;;3.50;96.50;;;;;;5050221;28;20491;-82
2021/01/04 00:45:28;;;;;;;24.33;14.60;;;3.50;96.80;;;;;;5046567;28;20072;-81
2021/01/04 00:48:20;;;;;;;23.13;14.33;;;3.50;96.50;;;;;;5042317;28;20056;-82
2021/01/04 00:51:13;;;;;;;24.93;16.30;;;3.50;96.50;;;;;;5045364;28;20060;-81
2021/01/04 00:53:49;;;;;;;24.02;15.93;;;3.50;96.50;;;;;;5040433;28;20036;-81
2021/01/04 00:56:48;;;;;;;23.00;15.07;;;3.50;96.50;;;;;;5036385;28;20083;-82
2021/01/04 00:59:31;;;;;;;23.80;15.33;;;3.50;96.50;;;;;;5044868;28;20053;-81
2021/01/04 01:02:22;;;;;;;20.30;14.63;;;3.50;96.50;;;;;;5052385;28;20040;-81
2021/01/04 01:04:59;;;;;;;17.83;12.90;;;3.50;96.50;;;;;;5046283;28;20044;-82
2021/01/04 01:07:56;;;;;;;22.40;13.83;;;3.50;96.50;;;;;;5048502;28;20400;-82
2021/01/04 01:10:24;;;;;;;21.80;13.83;;;3.50;96.50;;;;;;5049396;28;20037;-83
2021/01/04 01:13:04;;;;;;;21.47;13.30;;;3.50;96.50;;;;;;5046277;28;20487;-82
2021/01/04 01:15:41;;;;;;;23.43;14.57;;;3.50;96.50;;;;;;5050025;28;20070;-82
2021/01/04 01:18:29;;;;;;;18.77;12.37;;;3.50;96.50;;;;;;5044839;28;20712;-82
2021/01/04 01:20:57;;;;;;;16.93;12.80;;;3.50;96.50;;;;;;5051466;28;20049;-82
2021/01/04 01:23:26;;;;;;;19.80;14.47;;;3.60;96.50;;;;;;5035966;28;20072;-81
2021/01/04 01:26:09;;;;;;;17.97;12.53;;;3.50;96.50;;;;;;5032938;28;20037;-81
2021/01/04 01:28:54;;;;;;;;;;;3.60;96.50;;;;;;5046395;28;20488;-81
2021/01/04 01:31:31;;;;;;;18.33;13.03;;;3.50;96.50;;;;;;5015572;28;19920;-81
2021/01/04 01:34:33;;;;;;;21.43;14.03;;;3.50;96.40;;;;;;5050686;28;20495;-81
2021/01/04 01:37:24;;;;;;;18.93;12.60;;;3.50;96.40;;;;;;5052761;28;20049;-82
2021/01/04 01:39:53;;;;;;;21.13;13.83;;;3.50;96.40;;;;;;5048829;28;20053;-82
2021/01/04 01:42:48;;;;;;;18.40;12.87;;;3.50;96.40;;;;;;5019861;28;20044;-81
2021/01/04 01:45:26;;;;;;;18.47;12.57;;;3.50;96.50;;;;;;5046446;28;20418;-81
2021/01/04 01:48:16;;;;;;;20.23;12.83;;;3.50;96.50;;;;;;5051021;28;20479;-81
2021/01/04 01:50:49;;;;;;;20.40;12.50;;;3.40;96.60;;;;;;5047130;28;20041;-82
2021/01/04 01:53:39;;;;;;;18.40;12.73;;;3.40;96.60;;;;;;5032204;28;20037;-81
2021/01/04 01:56:11;;;;;;;19.90;13.07;;;3.50;96.60;;;;;;5049619;28;20048;-81
2021/01/04 01:58:56;;;;;;;17.75;12.90;;;3.40;96.70;;;;;;5050092;28;20047;-81
2021/01/04 02:02:08;;;;;;;16.80;12.60;;;3.40;96.70;;;;;;5049411;28;20033;-80
2021/01/04 02:05:15;;;;;;;20.27;13.53;;;3.40;96.70;;;;;;5058188;28;20115;-81
2021/01/04 02:07:54;;;;;;;18.53;12.97;;;3.40;96.70;;;;;;5059737;28;20041;-81
2021/01/04 02:10:30;;;;;;;19.90;13.10;;;3.40;96.60;;;;;;5037898;28;20037;-81
2021/01/04 02:13:23;;;;;;;19.37;12.53;;;3.40;96.70;;;;;;5051849;28;20033;-81
2021/01/04 02:15:58;;;;;;;18.80;13.00;;;3.40;96.70;;;;;;5051030;28;20029;-81
2021/01/04 02:18:53;;;;;;;21.63;13.70;;;3.40;96.70;;;;;;5051121;28;20048;-81
2021/01/04 02:21:50;;;;;;;18.93;12.50;;;3.40;96.80;;;;;;5036631;28;20043;-82
2021/01/04 02:24:26;;;;;;;19.33;12.37;;;3.30;96.80;;;;;;5049800;28;20044;-81
2021/01/04 02:27:22;;;;;;;14.47;11.07;;;3.30;96.80;;;;;;5046930;28;20052;-81
2021/01/04 02:29:49;;;;;;;19.73;13.93;;;3.30;96.80;;;;;;5029494;28;20047;-82
2021/01/04 02:32:16;;;;;;;17.93;12.57;;;3.30;96.80;;;;;;5034884;28;20029;-81
2021/01/04 02:34:51;;;;;;;18.77;12.33;;;3.30;96.80;;;;;;5032880;28;20037;-82
2021/01/04 02:37:19;;;;;;;18.43;12.40;;;3.20;96.90;;;;;;5050727;28;20048;-82
2021/01/04 02:39:54;;;;;;;16.87;12.03;;;3.20;96.90;;;;;;5032036;28;20056;-82
2021/01/04 02:42:34;;;;;;;14.17;11.33;;;3.20;97.00;;;;;;5035542;28;20041;-81
2021/01/04 02:45:24;;;;;;;16.57;11.77;;;3.20;97.00;;;;;;5046888;28;20029;-81
2021/01/04 02:47:53;;;;;;;17.37;12.23;;;3.20;97.00;;;;;;5053240;28;20909;-81
2021/01/04 02:50:49;;;;;;;14.83;10.73;;;3.20;97.10;;;;;;5053261;28;20040;-81
2021/01/04 02:53:46;;;;;;;18.90;13.00;;;3.10;97.10;;;;;;5034236;28;20041;-82
2021/01/04 02:56:34;;;;;;;14.67;10.70;;;3.20;97.10;;;;;;5031263;28;20610;-81
2021/01/04 02:59:37;;;;;;;17.87;12.73;;;3.10;97.10;;;;;;5047676;28;20858;-82
2021/01/04 03:02:09;;;;;;;;;;;3.10;97.10;;;;;;5050400;28;20060;-82
2021/01/04 03:04:37;;;;;;;15.60;11.70;;;3.10;97.20;;;;;;5049514;28;19920;-82
2021/01/04 03:07:12;;;;;;;15.27;10.73;;;3.10;97.20;;;;;;5030499;28;20045;-81
2021/01/04 03:09:43;;;;;;;13.57;10.13;;;3.10;97.20;;;;;;5047402;28;20041;-82
2021/01/04 03:12:14;;;;;;;17.93;11.87;;;3.10;97.30;;;;;;5050781;28;20041;-82
2021/01/04 03:15:05;;;;;;;17.20;13.20;;;3.10;97.30;;;;;;5047879;28;20049;-83
2021/01/04 03:17:57;;;;;;;18.53;13.60;;;3.10;97.30;;;;;;5049795;28;20045;-82
2021/01/04 03:20:26;;;;;;;18.73;12.35;;;3.10;97.30;;;;;;5051327;28;20493;-82
2021/01/04 03:22:53;;;;;;;17.20;12.97;;;3.10;97.30;;;;;;5050844;28;20518;-83
2021/01/04 03:25:35;;;;;;;18.07;12.77;;;3.10;97.30;;;;;;5014482;28;20523;-82
2021/01/04 03:28:07;;;;;;;17.37;12.43;;;3.10;97.40;;;;;;5050276;28;20037;-82
2021/01/04 03:30:34;;;;;;;19.70;13.13;;;3.10;97.40;;;;;;5046201;28;20044;-82
2021/01/04 03:33:00;;;;;;;16.27;12.43;;;3.10;97.30;;;;;;5048363;28;20037;-82
2021/01/04 03:35:27;;;;;;;17.33;11.67;;;3.10;97.30;;;;;;5029943;28;20056;-82
2021/01/04 03:37:53;;;;;;;15.40;10.90;;;3.10;97.30;;;;;;5030854;28;20048;-82
2021/01/04 03:40:20;;;;;;;15.80;11.57;;;3.10;97.30;;;;;;5030908;28;20367;-82
2021/01/04 03:42:46;;;;;;;14.50;12.00;;;3.10;97.30;;;;;;5046124;28;20048;-82
2021/01/04 03:45:14;;;;;;;14.70;10.43;;;3.10;97.20;;;;;;5031300;28;20041;-82
2021/01/04 03:47:41;;;;;;;11.73;10.03;;;3.00;97.20;;;;;;5046865;28;20044;-82
2021/01/04 03:50:09;;;;;;;13.43;10.90;;;3.00;97.30;;;;;;5030800;28;20045;-82
2021/01/04 03:52:35;;;;;;;13.60;10.97;;;3.10;97.30;;;;;;5046955;28;20032;-82
2021/01/04 03:55:03;;;;;;;13.90;9.87;;;3.00;97.20;;;;;;5030537;28;20052;-81
2021/01/04 03:57:30;;;;;;;15.07;11.03;;;3.00;97.30;;;;;;5014069;28;20515;-81
2021/01/04 03:59:56;;;;;;;11.70;9.83;;;3.00;97.30;;;;;;5027998;28;20804;-82
2021/01/04 04:02:22;;;;;;;13.87;9.93;;;3.00;97.30;;;;;;5049880;28;20052;-82
2021/01/04 04:04:49;;;;;;;14.93;9.97;;;3.10;97.30;;;;;;5051064;28;20067;-82
2021/01/04 04:07:15;;;;;;;13.13;9.53;;;3.00;97.60;;;;;;5001540;28;20052;-81
2021/01/04 04:09:47;;;;;;;14.93;9.00;;;3.00;97.30;;;;;;4995670;28;20037;-82
2021/01/04 04:12:13;;;;;;;15.57;11.07;;;3.00;97.40;;;;;;5030112;28;20055;-82
2021/01/04 04:14:40;;;;;;;14.97;9.83;;;3.00;97.40;;;;;;5046744;28;20060;-82
2021/01/04 04:17:06;;;;;;;13.27;10.23;;;3.00;97.40;;;;;;5015885;28;20051;-81
2021/01/04 04:19:33;;;;;;;12.20;9.57;;;3.00;97.40;;;;;;5031218;28;20053;-81
2021/01/04 04:21:59;;;;;;;10.60;8.37;;;3.00;97.50;;;;;;5053391;28;20037;-81
2021/01/04 04:24:26;;;;;;;16.53;10.83;;;3.00;97.50;;;;;;5013830;28;20037;-81
2021/01/04 04:26:52;;;;;;;12.43;9.50;;;3.10;97.50;;;;;;5049654;28;20045;-82
2021/01/04 04:29:19;;;;;;;13.53;10.17;;;3.10;97.50;;;;;;5030794;28;20044;-82
2021/01/04 04:31:47;;;;;;;16.00;11.07;;;3.10;97.60;;;;;;5045367;28;20041;-82
2021/01/04 04:34:14;;;;;;;13.40;9.10;;;3.00;97.50;;;;;;5047894;28;20033;-82
2021/01/04 04:36:43;;;;;;;13.87;9.87;;;3.00;97.50;;;;;;5029516;28;20037;-82
2021/01/04 04:39:12;;;;;;;14.37;10.03;;;3.10;97.60;;;;;;5028309;28;20040;-82
2021/01/04 04:41:42;;;;;;;15.20;10.90;;;3.10;97.60;;;;;;5048485;28;20037;-82
2021/01/04 04:44:32;;;;;;;13.23;9.40;;;3.10;97.60;;;;;;5045928;28;20056;-81
2021/01/04 04:47:06;;;;;;;15.00;10.57;;;3.10;97.60;;;;;;5050203;28;20399;-82
2021/01/04 04:49:33;;;;;;;16.13;11.60;;;3.10;97.60;;;;;;5033666;28;20041;-82
2021/01/04 04:52:14;;;;;;;17.13;11.57;;;3.10;97.70;;;;;;5051228;28;20041;-82
2021/01/04 04:55:02;;;;;;;15.20;10.83;;;3.10;97.70;;;;;;5047649;28;20052;-83
2021/01/04 04:58:02;;;;;;;16.60;11.33;;;3.10;97.70;;;;;;5045738;28;20041;-82
2021/01/04 05:00:36;;;;;;;16.43;11.33;;;3.20;97.70;;;;;;5045773;28;20053;-82
2021/01/04 05:03:13;;;;;;;16.57;11.97;;;3.10;97.70;;;;;;5030671;28;20059;-82
2021/01/04 05:06:21;;;;;;;16.63;11.70;;;3.20;97.70;;;;;;5052828;28;20124;-82
2021/01/04 05:09:02;;;;;;;15.67;11.80;;;3.20;97.70;;;;;;5061547;28;20040;-82
2021/01/04 05:11:36;;;;;;;16.30;11.87;;;3.20;97.70;;;;;;5050387;28;20855;-83
2021/01/04 05:14:10;;;;;;;18.73;12.70;;;3.20;97.60;;;;;;5056822;28;20049;-82
2021/01/04 05:17:24;;;;;;;18.73;13.80;;;3.20;97.90;;;;;;5047675;28;20051;-82
2021/01/04 05:20:33;;;;;;;17.73;12.10;;;3.20;97.60;;;;;;5040875;28;20040;-82
2021/01/04 05:23:08;;;;;;;19.77;13.70;;;3.20;97.60;;;;;;5027817;28;20047;-83
2021/01/04 05:25:44;;;;;;;17.67;12.20;;;3.20;97.60;;;;;;5011541;28;20041;-82
2021/01/04 05:28:54;;;;;;;17.13;11.73;;;3.20;97.60;;;;;;5048481;28;20037;-82
2021/01/04 05:31:43;;;;;;;16.53;11.53;;;3.20;97.50;;;;;;5034406;28;20044;-82
2021/01/04 05:34:23;;;;;;;19.70;12.80;;;3.20;97.50;;;;;;5046623;28;20060;-80
2021/01/04 05:36:57;;;;;;;15.80;11.10;;;3.20;97.50;;;;;;5026330;28;20045;-82
2021/01/04 05:39:35;;;;;;;19.10;13.40;;;3.10;97.50;;;;;;5025836;28;20408;-82
2021/01/04 05:42:29;;;;;;;23.83;14.73;;;3.20;97.60;;;;;;5044832;28;20475;-82
2021/01/04 05:45:05;;;;;;;19.73;13.03;;;3.20;97.70;;;;;;5046969;28;20067;-82
2021/01/04 05:47:36;;;;;;;18.00;11.67;;;3.20;97.70;;;;;;5047569;28;20045;-82
2021/01/04 05:50:18;;;;;;;16.60;12.40;;;3.20;97.70;;;;;;5047146;28;20041;-82
2021/01/04 05:52:45;;;;;;;21.57;13.60;;;3.20;97.70;;;;;;5054008;28;20033;-82
2021/01/04 05:55:14;;;;;;;19.77;13.73;;;3.20;97.70;;;;;;5036204;28;20401;-82
2021/01/04 05:57:53;;;;;;;18.33;12.30;;;3.20;97.70;;;;;;5033230;28;20049;-83
2021/01/04 06:00:33;;;;;;;19.03;12.10;;;3.20;97.70;;;;;;5051634;28;20622;-83
2021/01/04 06:03:21;;;;;;;15.87;11.23;;;3.20;97.70;;;;;;5028257;28;20048;-84
2021/01/04 06:05:53;;;;;;;15.97;10.37;;;3.20;97.70;;;;;;5031192;28;20045;-85
2021/01/04 06:08:19;;;;;;;17.67;10.63;;;3.20;97.70;;;;;;5046381;28;20114;-85
2021/01/04 06:10:46;;;;;;;17.23;10.40;;;3.20;97.70;;;;;;5048625;28;20037;-85
2021/01/04 06:13:18;;;;;;;18.13;10.80;;;3.20;97.70;;;;;;5016366;28;20402;-84
2021/01/04 06:15:47;;;;;;;17.77;10.73;;;3.20;97.70;;;;;;5031848;28;20032;-84
2021/01/04 06:18:19;;;;;;;17.73;11.43;;;3.20;97.70;;;;;;5047724;28;20053;-85
2021/01/04 06:20:53;;;;;;;17.35;10.27;;;3.20;97.70;;;;;;5029811;28;20042;-84
2021/01/04 06:23:35;;;;;;;17.63;10.87;;;3.20;97.70;;;;;;5049883;28;20488;-83
2021/01/04 06:26:19;;;;;;;18.40;11.70;;;3.20;97.70;;;;;;5053331;28;20044;-83
2021/01/04 06:28:50;;;;;;;18.13;10.53;;;3.20;97.70;;;;;;5034430;28;20471;-83
2021/01/04 06:31:27;;;;;;;16.77;10.93;;;3.20;97.70;;;;;;5051865;28;20045;-83
2021/01/04 06:34:18;;;;;;;19.40;10.93;;;3.20;97.70;;;;;;5050957;28;20040;-82
2021/01/04 06:36:55;;;;;;;20.50;12.17;;;3.30;97.80;;;;;;5031940;28;20045;-83
2021/01/04 06:39:30;;;;;;;22.33;12.53;;;3.20;97.70;;;;;;5045866;28;20059;-82
2021/01/04 06:42:12;;;;;;;21.23;12.90;;;3.20;97.70;;;;;;5030663;28;20072;-82
2021/01/04 06:44:42;;;;;;;22.73;14.48;;;3.30;97.80;;;;;;5051076;28;20049;-80
2021/01/04 06:47:18;;;;;;;20.17;13.47;;;3.30;97.70;;;;;;5048198;28;20036;-81
2021/01/04 06:50:10;;;;;;;20.70;13.67;;;3.20;97.70;;;;;;5025695;28;20037;-83
2021/01/04 06:52:37;;;;;;;26.48;17.00;;;3.30;97.70;;;;;;5046446;28;20116;-82
2021/01/04 06:55:35;;;;;;;25.70;16.53;;;3.30;97.70;;;;;;5030215;28;20036;-81
2021/01/04 06:58:42;;;;;;;27.70;18.27;;;3.20;97.60;;;;;;5037486;28;20048;-82
2021/01/04 07:01:50;;;;;;;34.17;21.37;;;3.20;97.60;;;;;;5028847;28;20033;-81
2021/01/04 07:05:09;;;;;;;41.77;24.90;;;3.20;97.60;;;;;;5045399;28;20765;-81
2021/01/04 07:07:55;;;;;;;32.33;19.23;;;3.20;97.60;;;;;;5138877;27;794750;-82
2021/01/04 07:10:53;;;;;;;25.67;16.43;;;3.20;97.60;;;;;;5119417;27;20034;-82
2021/01/04 07:14:08;;;;;;;25.33;16.53;;;3.30;97.90;;;;;;5125738;27;20039;-82
2021/01/04 07:17:10;;;;;;;26.47;17.47;;;3.30;97.70;;;;;;5100195;27;20031;-82
2021/01/04 07:20:08;;;;;;;26.57;15.97;;;3.20;97.60;;;;;;5018887;28;20036;-82
2021/01/04 07:22:38;;;;;;;25.50;15.80;;;3.20;97.60;;;;;;5140426;27;20034;-82
2021/01/04 07:25:16;;;;;;;27.27;15.43;;;3.20;97.60;;;;;;5107917;27;20031;-82
2021/01/04 07:28:27;;;;;;;25.17;15.87;;;3.20;97.60;;;;;;5104275;27;20050;-82
2021/01/04 07:31:01;;;;;;;24.27;15.93;;;3.30;97.60;;;;;;5091284;27;20408;-83
2021/01/04 07:33:54;;;;;;;24.17;15.30;;;3.20;97.60;;;;;;5105414;27;20519;-84
2021/01/04 07:36:49;;;;;;;23.48;15.63;;;3.20;97.60;;;;;;5080521;27;20039;-83
2021/01/04 07:39:33;;;;;;;25.77;15.70;;;3.30;97.70;;;;;;5138624;27;21323;-83
2021/01/04 07:42:37;;;;;;;24.73;15.40;;;3.30;97.60;;;;;;5114467;27;20030;-83
2021/01/04 07:45:45;;;;;;;24.10;14.57;;;3.30;97.60;;;;;;5142486;27;20047;-83
2021/01/04 07:48:38;;;;;;;24.83;16.23;;;3.30;97.60;;;;;;5040131;28;20049;-83
2021/01/04 07:51:29;;;;;;;24.02;13.82;;;3.30;97.60;;;;;;5139140;27;20061;-83
2021/01/04 07:54:17;;;;;;;21.67;15.17;;;3.20;97.60;;;;;;5106067;27;20050;-83
2021/01/04 07:57:14;;;;;;;24.40;14.40;;;3.30;97.70;;;;;;5123584;27;20488;-83
2021/01/04 08:00:09;;;;;;;22.30;12.90;;;3.20;97.60;;;;;;5121699;27;20058;-83
2021/01/04 08:02:52;;;;;;;20.80;14.03;;;3.30;97.70;;;;;;5140715;27;20043;-83
2021/01/04 08:05:46;;;;;;;23.20;14.30;;;3.30;97.70;;;;;;5121332;27;20037;-83
2021/01/04 08:08:38;;;;;;;21.57;14.27;;;3.30;97.70;;;;;;5101165;27;20405;-83
2021/01/04 08:11:58;;;;;;;19.37;12.83;;;3.30;97.70;;;;;;5135377;27;20540;-83
2021/01/04 08:14:57;;;;;;;22.17;14.70;;;3.30;97.70;;;;;;5016840;28;20048;-83
2021/01/04 08:17:48;;;;;;;19.30;12.83;;;3.30;97.70;;;;;;5118883;27;20034;-84
2021/01/04 08:20:17;;;;;;;21.15;14.57;;;3.30;97.70;;;;;;5105590;27;20470;-84
2021/01/04 08:23:02;;;;;;;23.83;14.00;;;3.30;97.70;;;;;;5104892;27;20429;-76
2021/01/04 08:25:35;;;;;;;27.90;16.37;;;3.30;97.70;;;;;;5089694;27;20047;-76
2021/01/04 08:28:33;;;;;;;22.30;13.90;;;3.30;97.70;;;;;;5108454;27;20046;-76
2021/01/04 08:31:14;;;;;;;24.23;16.40;;;3.30;97.70;;;;;;5087009;27;20044;-76
2021/01/04 08:33:54;;;;;;;24.03;15.63;;;3.40;97.80;;;;;;5090084;27;20373;-76
2021/01/04 08:36:23;;;;;;;25.60;15.03;;;3.40;97.80;;;;;;5102696;27;20401;-76
2021/01/04 08:38:51;;;;;;;24.27;15.23;;;3.40;97.80;;;;;;5084405;27;20043;-76
2021/01/04 08:41:23;;;;;;;29.17;17.67;;;3.40;97.80;;;;;;5087624;27;20046;-76
2021/01/04 08:43:52;;;;;;;25.23;16.75;;;3.40;97.80;;;;;;5091603;27;20038;-75
2021/01/04 08:46:22;;;;;;;26.20;15.90;;;3.40;97.80;;;;;;5069015;28;20042;-76
2021/01/04 08:49:14;;;;;;;29.33;17.50;;;3.40;97.80;;;;;;5088859;27;20047;-76
2021/01/04 08:51:43;;;;;;;22.30;15.02;;;3.40;97.80;;;;;;5125565;27;20122;-76
2021/01/04 08:54:11;;;;;;;24.17;14.40;;;3.40;97.80;;;;;;5088369;27;20031;-75
2021/01/04 08:56:41;;;;;;;20.93;14.13;;;3.40;97.80;;;;;;5089891;27;20035;-76
2021/01/04 08:59:18;;;;;;;27.33;18.10;;;3.40;97.80;;;;;;5122758;27;20038;-76
2021/01/04 09:01:54;;;;;;;25.13;16.63;;;3.40;97.80;;;;;;5101506;27;20042;-76
2021/01/04 09:04:33;;;;;;;25.47;16.53;;;3.40;97.80;;;;;;5097266;27;20039;-76
2021/01/04 09:07:03;;;;;;;26.10;14.67;;;3.40;97.80;;;;;;5105417;27;20047;-76
2021/01/04 09:09:35;;;;;;;25.93;16.07;;;3.40;97.80;;;;;;5116712;27;20039;-76
2021/01/04 09:12:17;;;;;;;26.83;14.90;;;3.40;98.10;;;;;;5103958;27;20027;-76
2021/01/04 09:14:44;;;;;;;23.58;14.82;;;3.40;97.90;;;;;;5117607;27;20040;-76
2021/01/04 09:17:36;;;;;;;28.60;16.70;;;3.40;97.90;;;;;;5101885;27;20201;-76
2021/01/04 09:20:18;;;;;;;26.07;14.77;;;3.40;97.90;;;;;;5099859;27;20049;-77
2021/01/04 09:22:49;;;;;;;28.27;16.40;;;3.40;97.90;;;;;;5086626;27;20046;-76
2021/01/04 09:25:41;;;;;;;26.97;15.80;;;3.50;98.00;;;;;;5086457;27;20042;-76
2021/01/04 09:28:08;;;;;;;26.60;15.17;;;3.50;98.00;;;;;;5088777;27;20030;-75
2021/01/04 09:30:34;;;;;;;23.77;14.70;;;3.50;97.90;;;;;;5101253;27;20031;-75
2021/01/04 09:33:04;;;;;;;26.53;16.33;;;3.50;97.90;;;;;;5088774;27;20050;-76
2021/01/04 09:35:31;;;;;;;25.53;16.10;;;3.50;97.90;;;;;;5106020;27;20043;-76
2021/01/04 09:38:08;;;;;;;24.80;14.33;;;3.50;97.90;;;;;;5124652;27;20039;-76
2021/01/04 09:40:37;;;;;;;22.93;15.13;;;3.50;97.90;;;;;;5105896;27;20053;-76
2021/01/04 09:43:11;;;;;;;18.97;13.27;;;3.50;98.00;;;;;;5073980;27;20518;-76
2021/01/04 09:45:39;;;;;;;28.67;15.97;;;3.60;98.00;;;;;;5102410;27;20031;-76
2021/01/04 09:48:31;;;;;;;27.00;14.77;;;3.60;98.00;;;;;;5103979;27;20035;-75
2021/01/04 09:51:02;;;;;;;21.17;13.13;;;3.70;98.00;;;;;;5085216;27;20516;-76
2021/01/04 09:53:35;;;;;;;19.53;13.80;;;3.70;97.90;;;;;;5103807;27;20038;-76
2021/01/04 09:56:05;;;;;;;22.73;13.60;;;3.70;97.90;;;;;;5102227;27;20038;-76
2021/01/04 09:58:32;;;;;;;24.43;13.40;;;3.80;97.90;;;;;;5068550;27;20123;-76
2021/01/04 10:01:18;;;;;;;23.37;14.70;;;3.80;97.90;;;;;;5088798;27;20039;-76
2021/01/04 10:03:55;;;;;;;22.23;14.23;;;3.80;97.80;;;;;;5106356;27;20066;-76
2021/01/04 10:06:23;;;;;;;19.43;12.23;;;3.80;97.80;;;;;;5086400;27;20055;-76
2021/01/04 10:08:50;;;;;;;23.63;13.87;;;3.80;97.80;;;;;;5085229;27;20044;-76
2021/01/04 10:11:20;;;;;;;24.10;14.37;;;3.80;97.70;;;;;;5069086;27;20039;-76
2021/01/04 10:13:47;;;;;;;21.23;13.40;;;3.80;97.60;;;;;;5073345;27;20042;-76
2021/01/04 10:16:24;;;;;;;20.97;12.60;;;3.80;97.60;;;;;;5090123;27;20024;-76
2021/01/04 10:19:02;;;;;;;20.70;12.37;;;3.80;97.60;;;;;;5102685;27;20039;-76
2021/01/04 10:21:56;;;;;;;17.63;12.23;;;3.80;97.50;;;;;;5105606;27;20039;-76
2021/01/04 10:24:35;;;;;;;19.03;12.60;;;3.80;97.50;;;;;;5096544;27;20038;-83
2021/01/04 10:27:05;;;;;;;17.07;12.03;;;3.80;97.50;;;;;;5106972;27;20043;-84
2021/01/04 10:29:32;;;;;;;18.97;11.07;;;3.90;97.50;;;;;;5121475;27;20035;-84
2021/01/04 10:32:07;;;;;;;22.47;12.60;;;3.90;97.60;;;;;;5088867;27;20031;-82
2021/01/04 10:34:43;;;;;;;18.30;12.50;;;3.90;97.50;;;;;;5081627;28;20035;-83
2021/01/04 10:37:35;;;;;;;18.20;11.87;;;3.90;97.50;;;;;;5087090;27;20047;-82
2021/01/04 10:40:06;;;;;;;17.93;11.57;;;3.90;97.50;;;;;;5116130;27;20050;-82
2021/01/04 10:42:36;;;;;;;15.97;10.90;;;3.90;97.50;;;;;;5106515;27;20054;-83
2021/01/04 10:45:12;;;;;;;15.13;10.67;;;3.90;97.40;;;;;;5086240;27;20596;-81
2021/01/04 10:47:54;;;;;;;40.67;25.00;;;3.90;97.40;;;;;;5064041;27;20043;-80
2021/01/04 10:50:32;;;;;;;24.45;14.48;;;3.90;97.40;;;;;;5100851;28;20449;-81
2021/01/04 10:53:11;;;;;;;19.97;10.77;;;3.80;97.40;;;;;;5067129;27;20028;-81
2021/01/04 10:55:51;;;;;;;16.13;10.97;;;3.80;97.40;;;;;;5105243;27;20042;-81
2021/01/04 10:58:25;;;;;;;20.87;12.60;;;3.80;97.40;;;;;;5103310;28;20046;-81
2021/01/04 11:01:02;;;;;;;15.13;9.90;;;3.80;97.50;;;;;;5079122;28;20485;-81
2021/01/04 11:03:29;;;;;;;15.60;9.93;;;3.80;97.40;;;;;;5105268;28;20042;-81
2021/01/04 11:05:55;;;;;;;15.93;9.53;;;3.80;97.40;;;;;;5124616;27;20047;-81
2021/01/04 11:08:30;;;;;;;14.87;9.03;;;3.80;97.40;;;;;;5123230;27;20039;-81
2021/01/04 11:11:11;;;;;;;12.93;8.77;;;3.80;97.40;;;;;;5122275;27;20039;-81
2021/01/04 11:13:38;;;;;;;15.77;8.90;;;3.80;97.30;;;;;;5088539;28;20035;-81
2021/01/04 11:16:11;;;;;;;15.80;11.10;;;3.80;97.30;;;;;;5106161;28;20035;-75
2021/01/04 11:18:54;;;;;;;16.23;10.00;;;3.70;97.30;;;;;;5122375;27;20478;-76
2021/01/04 11:21:43;;;;;;;13.27;8.70;;;3.80;97.40;;;;;;5105569;28;20397;-75
2021/01/04 11:24:10;;;;;;;14.50;8.43;;;3.80;97.40;;;;;;5123599;27;20031;-75
2021/01/04 11:26:37;;;;;;;13.03;8.63;;;3.80;97.40;;;;;;5086892;28;20054;-75
2021/01/04 11:29:03;;;;;;;13.03;8.83;;;3.70;97.40;;;;;;5067809;28;20036;-75
2021/01/04 11:31:32;;;;;;;9.90;7.67;;;3.80;97.40;;;;;;5039116;28;20039;-75
2021/01/04 11:33:59;;;;;;;13.83;9.30;;;3.80;97.40;;;;;;5096725;28;20027;-76
2021/01/04 11:36:26;;;;;;;13.00;8.30;;;3.80;97.30;;;;;;5088830;28;20035;-75
2021/01/04 11:38:53;;;;;;;12.97;8.37;;;3.80;97.20;;;;;;5104145;28;20027;-75
2021/01/04 11:41:19;;;;;;;13.93;8.17;;;3.80;97.20;;;;;;5088563;28;20660;-75
2021/01/04 11:43:47;;;;;;;14.73;8.27;;;3.80;97.30;;;;;;5089029;28;20040;-75
2021/01/04 11:46:16;;;;;;;12.50;8.63;;;3.80;97.30;;;;;;5088728;28;20046;-75
2021/01/04 11:48:42;;;;;;;13.70;8.30;;;3.80;97.20;;;;;;5087265;28;20039;-75
2021/01/04 11:51:14;;;;;;;11.30;8.03;;;3.80;97.10;;;;;;5071753;28;20042;-75
2021/01/04 11:53:40;;;;;;;12.23;8.90;;;3.70;97.20;;;;;;5108237;27;20509;-75
2021/01/04 11:56:07;;;;;;;12.60;8.87;;;3.80;97.20;;;;;;5092461;27;20031;-75
2021/01/04 11:58:39;;;;;;;11.70;8.80;;;3.80;97.20;;;;;;5107770;27;20429;-75
2021/01/04 12:01:06;;;;;;;11.93;8.45;;;3.80;97.20;;;;;;5076038;27;20043;-81
2021/01/04 12:03:33;;;;;;;12.20;8.17;;;3.80;97.20;;;;;;5093125;27;20039;-81
2021/01/04 12:05:59;;;;;;;15.10;8.60;;;3.80;97.10;;;;;;5090898;27;20040;-81
2021/01/04 12:08:25;;;;;;;12.77;8.53;;;3.80;97.00;;;;;;5091240;27;20031;-81
2021/01/04 12:10:52;;;;;;;11.03;7.80;;;3.70;97.00;;;;;;5076019;27;20042;-81
2021/01/04 12:13:19;;;;;;;16.30;9.37;;;3.70;96.90;;;;;;5088880;27;20031;-81
2021/01/04 12:15:45;;;;;;;13.07;7.47;;;3.70;97.00;;;;;;5110147;27;20039;-81
2021/01/04 12:18:12;;;;;;;12.50;8.20;;;3.70;97.00;;;;;;5091740;27;20039;-75
2021/01/04 12:20:40;;;;;;;9.93;7.40;;;3.80;97.00;;;;;;5078225;27;20062;-75
2021/01/04 12:23:07;;;;;;;9.17;6.70;;;3.70;96.80;;;;;;5126253;27;20386;-75
2021/01/04 12:25:34;;;;;;;10.30;7.00;;;3.70;96.80;;;;;;5109430;27;20043;-76
2021/01/04 12:28:00;;;;;;;12.93;7.30;;;3.70;96.80;;;;;;5091972;27;20050;-75
2021/01/04 12:30:27;;;;;;;10.77;6.93;;;3.80;96.90;;;;;;5087823;27;20047;-75
2021/01/04 12:32:54;;;;;;;9.90;6.30;;;3.80;96.70;;;;;;5091247;27;20043;-75
2021/01/04 12:35:21;;;;;;;7.67;6.87;;;3.80;96.60;;;;;;5087968;27;20066;-75
2021/01/04 12:37:48;;;;;;;9.13;6.60;;;3.80;96.60;;;;;;5091497;27;20046;-75
2021/01/04 12:40:18;;;;;;;10.53;6.87;;;3.80;96.40;;;;;;5089789;27;20101;-76
2021/01/04 12:42:44;;;;;;;12.13;7.20;;;3.70;96.30;;;;;;5107633;27;20051;-75
2021/01/04 12:45:12;;;;;;;8.50;6.10;;;3.70;96.30;;;;;;5108117;27;20051;-76
2021/01/04 12:47:38;;;;;;;10.40;7.00;;;3.70;96.30;;;;;;5090749;27;20046;-76
2021/01/04 12:50:06;;;;;;;8.87;6.93;;;3.80;96.30;;;;;;5123549;27;20050;-75
2021/01/04 12:52:32;;;;;;;9.67;6.70;;;3.80;96.40;;;;;;5106056;27;20050;-75
2021/01/04 12:54:59;;;;;;;8.67;6.20;;;3.80;96.00;;;;;;5107551;27;20058;-75
2021/01/04 12:57:25;;;;;;;9.27;6.93;;;3.80;96.10;;;;;;5107405;27;20058;-75
2021/01/04 12:59:52;;;;;;;9.00;5.80;;;3.80;96.20;;;;;;5106259;27;20046;-75
2021/01/04 13:02:19;;;;;;;8.93;7.27;;;3.80;96.20;;;;;;5072418;27;20036;-75
2021/01/04 13:04:46;;;;;;;13.40;7.03;;;3.80;96.10;;;;;;5089039;27;20039;-75
2021/01/04 13:07:13;;;;;;;10.33;6.23;;;3.80;96.40;;;;;;5056519;27;20390;-75
2021/01/04 13:09:43;;;;;;;9.33;5.57;;;3.80;96.00;;;;;;5087370;27;20043;-74
2021/01/04 13:12:10;;;;;;;10.50;6.23;;;3.70;95.90;;;;;;5088456;27;20063;-75
2021/01/04 13:14:36;;;;;;;8.77;5.90;;;3.70;95.80;;;;;;5071522;27;20039;-75
2021/01/04 13:17:03;;;;;;;9.07;5.57;;;3.70;95.80;;;;;;5089057;27;20405;-75
2021/01/04 13:19:30;;;;;;;7.93;6.17;;;3.70;95.80;;;;;;5087184;27;20045;-75
2021/01/04 13:21:58;;;;;;;12.57;6.73;;;3.70;95.80;;;;;;5090506;27;20038;-75
2021/01/04 13:24:26;;;;;;;8.37;5.40;;;3.70;95.70;;;;;;5078892;27;20042;-75
2021/01/04 13:26:54;;;;;;;8.73;6.07;;;3.70;95.60;;;;;;5125779;27;20058;-76
2021/01/04 13:29:29;;;;;;;9.23;6.03;;;3.70;95.50;;;;;;5093777;27;20042;-76
2021/01/04 13:32:09;;;;;;;8.33;4.93;;;3.70;95.60;;;;;;5104354;27;20035;-75
2021/01/04 13:34:36;;;;;;;8.77;6.20;;;3.60;95.60;;;;;;5107482;27;20061;-76